sensor_id;sensor_type;location;lat;lon;timestamp;P1;durP1;ratioP1;P2;durP2;ratioP2
16197;SDS011;8206;51.440;6.914;2022-12-18T00:02:17;1.20;;;1.20;;
16197;SDS011;8206;51.440;6.914;2022-12-18T00:04:44;1.57;;;1.57;;
16197;SDS011;8206;51.440;6.914;2022-12-18T00:07:11;3.07;;;2.43;;
16197;SDS011;8206;51.440;6.914;2022-12-18T00:09:38;8.27;;;3.67;;
16197;SDS011;8206;51.440;6.914;2022-12-18T00:12:05;1.67;;;1.67;;
16197;SDS011;8206;51.440;6.914;2022-12-18T00:14:32;1.53;;;1.53;;
16197;SDS011;8206;51.440;6.914;2022-12-18T00:17:00;2.33;;;2.30;;
16197;SDS011;8206;51.440;6.914;2022-12-18T00:19:26;2.67;;;2.53;;
16197;SDS011;8206;51.440;6.914;2022-12-18T00:21:53;3.23;;;1.27;;
16197;SDS011;8206;51.440;6.914;2022-12-18T00:24:20;6.33;;;2.90;;
16197;SDS011;8206;51.440;6.914;2022-12-18T00:26:47;1.63;;;1.53;;
16197;SDS011;8206;51.440;6.914;2022-12-18T00:29:13;2.27;;;2.17;;
16197;SDS011;8206;51.440;6.914;2022-12-18T00:31:40;0.80;;;0.80;;
16197;SDS011;8206;51.440;6.914;2022-12-18T00:34:10;2.17;;;2.07;;
16197;SDS011;8206;51.440;6.914;2022-12-18T00:36:38;1.30;;;1.30;;
16197;SDS011;8206;51.440;6.914;2022-12-18T00:39:05;6.53;;;1.67;;
16197;SDS011;8206;51.440;6.914;2022-12-18T00:41:32;1.20;;;1.20;;
16197;SDS011;8206;51.440;6.914;2022-12-18T00:44:17;2.30;;;2.20;;
16197;SDS011;8206;51.440;6.914;2022-12-18T00:46:45;17.90;;;3.47;;
16197;SDS011;8206;51.440;6.914;2022-12-18T00:49:14;1.60;;;1.50;;
16197;SDS011;8206;51.440;6.914;2022-12-18T00:51:41;2.13;;;2.03;;
16197;SDS011;8206;51.440;6.914;2022-12-18T00:54:08;1.37;;;1.37;;
16197;SDS011;8206;51.440;6.914;2022-12-18T00:56:36;1.20;;;1.20;;
16197;SDS011;8206;51.440;6.914;2022-12-18T00:59:03;7.00;;;1.50;;
16197;SDS011;8206;51.440;6.914;2022-12-18T01:01:30;3.30;;;1.37;;
16197;SDS011;8206;51.440;6.914;2022-12-18T01:03:57;2.30;;;2.20;;
16197;SDS011;8206;51.440;6.914;2022-12-18T01:06:26;12.87;;;3.17;;
16197;SDS011;8206;51.440;6.914;2022-12-18T01:08:53;2.27;;;2.17;;
16197;SDS011;8206;51.440;6.914;2022-12-18T01:11:20;2.70;;;2.53;;
16197;SDS011;8206;51.440;6.914;2022-12-18T01:13:47;12.63;;;1.63;;
16197;SDS011;8206;51.440;6.914;2022-12-18T01:16:15;1.37;;;1.37;;
16197;SDS011;8206;51.440;6.914;2022-12-18T01:18:43;1.17;;;1.17;;
16197;SDS011;8206;51.440;6.914;2022-12-18T01:21:11;1.57;;;1.50;;
16197;SDS011;8206;51.440;6.914;2022-12-18T01:23:47;2.87;;;2.77;;
16197;SDS011;8206;51.440;6.914;2022-12-18T01:26:17;2.33;;;2.13;;
16197;SDS011;8206;51.440;6.914;2022-12-18T01:28:44;2.10;;;2.00;;
16197;SDS011;8206;51.440;6.914;2022-12-18T01:31:14;2.37;;;2.27;;
16197;SDS011;8206;51.440;6.914;2022-12-18T01:33:43;1.73;;;1.47;;
16197;SDS011;8206;51.440;6.914;2022-12-18T01:36:17;3.60;;;2.13;;
16197;SDS011;8206;51.440;6.914;2022-12-18T01:38:44;1.30;;;1.23;;
16197;SDS011;8206;51.440;6.914;2022-12-18T01:41:13;1.43;;;1.43;;
16197;SDS011;8206;51.440;6.914;2022-12-18T01:43:45;1.17;;;1.17;;
16197;SDS011;8206;51.440;6.914;2022-12-18T01:46:14;1.00;;;1.00;;
16197;SDS011;8206;51.440;6.914;2022-12-18T01:48:43;1.87;;;1.77;;
16197;SDS011;8206;51.440;6.914;2022-12-18T01:51:11;1.33;;;1.33;;
16197;SDS011;8206;51.440;6.914;2022-12-18T01:53:38;1.20;;;1.20;;
16197;SDS011;8206;51.440;6.914;2022-12-18T01:56:06;1.43;;;1.43;;
16197;SDS011;8206;51.440;6.914;2022-12-18T01:58:37;2.00;;;1.87;;
16197;SDS011;8206;51.440;6.914;2022-12-18T02:01:09;2.10;;;2.03;;
16197;SDS011;8206;51.440;6.914;2022-12-18T02:03:36;1.70;;;1.70;;
16197;SDS011;8206;51.440;6.914;2022-12-18T02:06:07;1.70;;;1.70;;
16197;SDS011;8206;51.440;6.914;2022-12-18T02:08:41;1.33;;;1.33;;
16197;SDS011;8206;51.440;6.914;2022-12-18T02:11:14;2.20;;;2.10;;
16197;SDS011;8206;51.440;6.914;2022-12-18T02:13:53;1.67;;;1.57;;
16197;SDS011;8206;51.440;6.914;2022-12-18T02:16:25;1.53;;;1.53;;
16197;SDS011;8206;51.440;6.914;2022-12-18T02:18:59;3.63;;;3.30;;
16197;SDS011;8206;51.440;6.914;2022-12-18T02:21:34;1.40;;;1.40;;
16197;SDS011;8206;51.440;6.914;2022-12-18T02:24:17;0.70;;;0.70;;
16197;SDS011;8206;51.440;6.914;2022-12-18T02:26:53;3.50;;;3.30;;
16197;SDS011;8206;51.440;6.914;2022-12-18T02:29:23;4.57;;;2.57;;
16197;SDS011;8206;51.440;6.914;2022-12-18T02:31:53;1.20;;;1.20;;
16197;SDS011;8206;51.440;6.914;2022-12-18T02:34:29;1.10;;;1.10;;
16197;SDS011;8206;51.440;6.914;2022-12-18T02:36:59;2.07;;;2.00;;
16197;SDS011;8206;51.440;6.914;2022-12-18T02:39:29;7.73;;;2.43;;
16197;SDS011;8206;51.440;6.914;2022-12-18T02:42:01;1.67;;;1.67;;
16197;SDS011;8206;51.440;6.914;2022-12-18T02:44:32;2.60;;;2.43;;
16197;SDS011;8206;51.440;6.914;2022-12-18T02:46:59;2.10;;;2.00;;
16197;SDS011;8206;51.440;6.914;2022-12-18T02:49:29;2.03;;;2.03;;
16197;SDS011;8206;51.440;6.914;2022-12-18T02:52:02;1.43;;;1.33;;
16197;SDS011;8206;51.440;6.914;2022-12-18T02:54:41;1.20;;;1.20;;
16197;SDS011;8206;51.440;6.914;2022-12-18T02:57:20;1.33;;;1.33;;
16197;SDS011;8206;51.440;6.914;2022-12-18T02:59:56;2.50;;;2.40;;
16197;SDS011;8206;51.440;6.914;2022-12-18T03:02:29;2.43;;;2.37;;
16197;SDS011;8206;51.440;6.914;2022-12-18T03:05:03;2.73;;;2.63;;
16197;SDS011;8206;51.440;6.914;2022-12-18T03:07:35;1.70;;;1.60;;
16197;SDS011;8206;51.440;6.914;2022-12-18T03:10:06;3.30;;;2.17;;
16197;SDS011;8206;51.440;6.914;2022-12-18T03:12:40;1.17;;;1.17;;
16197;SDS011;8206;51.440;6.914;2022-12-18T03:15:13;1.67;;;1.60;;
16197;SDS011;8206;51.440;6.914;2022-12-18T03:17:44;2.00;;;1.90;;
16197;SDS011;8206;51.440;6.914;2022-12-18T03:20:15;1.93;;;1.83;;
16197;SDS011;8206;51.440;6.914;2022-12-18T03:22:46;3.03;;;2.87;;
16197;SDS011;8206;51.440;6.914;2022-12-18T03:25:16;1.10;;;1.10;;
16197;SDS011;8206;51.440;6.914;2022-12-18T03:27:47;1.70;;;1.67;;
16197;SDS011;8206;51.440;6.914;2022-12-18T03:30:18;2.13;;;2.07;;
16197;SDS011;8206;51.440;6.914;2022-12-18T03:32:46;2.60;;;1.37;;
16197;SDS011;8206;51.440;6.914;2022-12-18T03:35:20;1.57;;;1.47;;
16197;SDS011;8206;51.440;6.914;2022-12-18T03:37:52;3.80;;;1.70;;
16197;SDS011;8206;51.440;6.914;2022-12-18T03:40:19;4.17;;;3.40;;
16197;SDS011;8206;51.440;6.914;2022-12-18T03:42:55;1.87;;;1.87;;
16197;SDS011;8206;51.440;6.914;2022-12-18T03:45:30;3.20;;;1.50;;
16197;SDS011;8206;51.440;6.914;2022-12-18T03:48:01;1.97;;;1.87;;
16197;SDS011;8206;51.440;6.914;2022-12-18T03:50:36;0.77;;;0.77;;
16197;SDS011;8206;51.440;6.914;2022-12-18T03:53:12;2.43;;;2.17;;
16197;SDS011;8206;51.440;6.914;2022-12-18T03:55:45;1.00;;;1.00;;
16197;SDS011;8206;51.440;6.914;2022-12-18T03:58:17;3.03;;;1.73;;
16197;SDS011;8206;51.440;6.914;2022-12-18T04:00:47;2.57;;;2.47;;
16197;SDS011;8206;51.440;6.914;2022-12-18T04:03:16;3.33;;;3.03;;
16197;SDS011;8206;51.440;6.914;2022-12-18T04:05:45;1.93;;;1.90;;
16197;SDS011;8206;51.440;6.914;2022-12-18T04:08:16;1.90;;;1.90;;
16197;SDS011;8206;51.440;6.914;2022-12-18T04:10:44;2.27;;;2.03;;
16197;SDS011;8206;51.440;6.914;2022-12-18T04:13:10;3.97;;;3.67;;
16197;SDS011;8206;51.440;6.914;2022-12-18T04:15:38;1.37;;;1.37;;
16197;SDS011;8206;51.440;6.914;2022-12-18T04:18:07;1.20;;;1.20;;
16197;SDS011;8206;51.440;6.914;2022-12-18T04:20:34;0.80;;;0.80;;
16197;SDS011;8206;51.440;6.914;2022-12-18T04:23:00;3.33;;;3.13;;
16197;SDS011;8206;51.440;6.914;2022-12-18T04:25:27;1.50;;;1.50;;
16197;SDS011;8206;51.440;6.914;2022-12-18T04:27:54;2.53;;;1.60;;
16197;SDS011;8206;51.440;6.914;2022-12-18T04:30:21;1.20;;;1.20;;
16197;SDS011;8206;51.440;6.914;2022-12-18T04:32:49;3.87;;;2.37;;
16197;SDS011;8206;51.440;6.914;2022-12-18T04:35:15;5.30;;;3.23;;
16197;SDS011;8206;51.440;6.914;2022-12-18T04:37:42;6.00;;;4.77;;
16197;SDS011;8206;51.440;6.914;2022-12-18T04:40:09;7.70;;;5.57;;
16197;SDS011;8206;51.440;6.914;2022-12-18T04:42:37;3.07;;;2.87;;
16197;SDS011;8206;51.440;6.914;2022-12-18T04:45:05;6.93;;;6.20;;
16197;SDS011;8206;51.440;6.914;2022-12-18T04:47:33;5.37;;;5.03;;
16197;SDS011;8206;51.440;6.914;2022-12-18T04:50:01;6.57;;;5.97;;
16197;SDS011;8206;51.440;6.914;2022-12-18T04:52:31;5.07;;;4.73;;
16197;SDS011;8206;51.440;6.914;2022-12-18T04:54:58;16.23;;;8.47;;
16197;SDS011;8206;51.440;6.914;2022-12-18T04:57:24;9.23;;;8.40;;
16197;SDS011;8206;51.440;6.914;2022-12-18T04:59:51;6.27;;;5.27;;
16197;SDS011;8206;51.440;6.914;2022-12-18T05:02:18;6.83;;;4.77;;
16197;SDS011;8206;51.440;6.914;2022-12-18T05:04:44;6.53;;;6.13;;
16197;SDS011;8206;51.440;6.914;2022-12-18T05:07:13;6.37;;;5.90;;
16197;SDS011;8206;51.440;6.914;2022-12-18T05:09:39;10.63;;;7.07;;
16197;SDS011;8206;51.440;6.914;2022-12-18T05:12:06;15.33;;;5.63;;
16197;SDS011;8206;51.440;6.914;2022-12-18T05:14:33;5.67;;;5.33;;
16197;SDS011;8206;51.440;6.914;2022-12-18T05:16:59;6.53;;;5.37;;
16197;SDS011;8206;51.440;6.914;2022-12-18T05:19:26;13.80;;;7.70;;
16197;SDS011;8206;51.440;6.914;2022-12-18T05:21:53;4.47;;;4.17;;
16197;SDS011;8206;51.440;6.914;2022-12-18T05:24:21;6.17;;;5.47;;
16197;SDS011;8206;51.440;6.914;2022-12-18T05:26:48;7.03;;;6.53;;
16197;SDS011;8206;51.440;6.914;2022-12-18T05:29:15;6.60;;;6.20;;
16197;SDS011;8206;51.440;6.914;2022-12-18T05:31:41;11.23;;;7.47;;
16197;SDS011;8206;51.440;6.914;2022-12-18T05:34:08;10.00;;;6.30;;
16197;SDS011;8206;51.440;6.914;2022-12-18T05:36:35;6.80;;;6.13;;
16197;SDS011;8206;51.440;6.914;2022-12-18T05:39:02;8.53;;;4.83;;
16197;SDS011;8206;51.440;6.914;2022-12-18T05:41:30;5.57;;;5.17;;
16197;SDS011;8206;51.440;6.914;2022-12-18T05:43:57;4.70;;;4.40;;
16197;SDS011;8206;51.440;6.914;2022-12-18T05:46:25;6.03;;;5.70;;
16197;SDS011;8206;51.440;6.914;2022-12-18T05:48:52;11.57;;;8.10;;
16197;SDS011;8206;51.440;6.914;2022-12-18T05:51:19;7.27;;;5.60;;
16197;SDS011;8206;51.440;6.914;2022-12-18T05:53:47;14.73;;;8.33;;
16197;SDS011;8206;51.440;6.914;2022-12-18T05:56:15;5.27;;;4.93;;
16197;SDS011;8206;51.440;6.914;2022-12-18T05:58:44;7.17;;;6.17;;
16197;SDS011;8206;51.440;6.914;2022-12-18T06:01:13;6.70;;;6.10;;
16197;SDS011;8206;51.440;6.914;2022-12-18T06:03:41;6.37;;;5.97;;
16197;SDS011;8206;51.440;6.914;2022-12-18T06:06:18;6.13;;;5.83;;
16197;SDS011;8206;51.440;6.914;2022-12-18T06:08:47;3.47;;;3.30;;
16197;SDS011;8206;51.440;6.914;2022-12-18T06:11:16;5.77;;;5.47;;
16197;SDS011;8206;51.440;6.914;2022-12-18T06:13:45;3.10;;;2.90;;
16197;SDS011;8206;51.440;6.914;2022-12-18T06:16:12;5.57;;;5.17;;
16197;SDS011;8206;51.440;6.914;2022-12-18T06:18:39;3.27;;;3.07;;
16197;SDS011;8206;51.440;6.914;2022-12-18T06:21:06;6.03;;;5.47;;
16197;SDS011;8206;51.440;6.914;2022-12-18T06:23:32;4.47;;;3.60;;
16197;SDS011;8206;51.440;6.914;2022-12-18T06:26:02;4.13;;;3.83;;
16197;SDS011;8206;51.440;6.914;2022-12-18T06:28:30;4.40;;;4.10;;
16197;SDS011;8206;51.440;6.914;2022-12-18T06:30:58;27.80;;;6.27;;
16197;SDS011;8206;51.440;6.914;2022-12-18T06:33:25;6.60;;;4.37;;
16197;SDS011;8206;51.440;6.914;2022-12-18T06:35:53;5.13;;;4.80;;
16197;SDS011;8206;51.440;6.914;2022-12-18T06:38:20;4.67;;;4.27;;
16197;SDS011;8206;51.440;6.914;2022-12-18T06:40:47;3.67;;;3.07;;
16197;SDS011;8206;51.440;6.914;2022-12-18T06:43:14;4.67;;;4.43;;
16197;SDS011;8206;51.440;6.914;2022-12-18T06:45:40;4.10;;;3.90;;
16197;SDS011;8206;51.440;6.914;2022-12-18T06:48:08;8.70;;;5.67;;
16197;SDS011;8206;51.440;6.914;2022-12-18T06:50:35;2.80;;;2.70;;
16197;SDS011;8206;51.440;6.914;2022-12-18T06:53:02;3.37;;;3.27;;
16197;SDS011;8206;51.440;6.914;2022-12-18T06:55:28;3.60;;;3.37;;
16197;SDS011;8206;51.440;6.914;2022-12-18T06:57:55;3.57;;;3.47;;
16197;SDS011;8206;51.440;6.914;2022-12-18T07:00:22;5.53;;;5.13;;
16197;SDS011;8206;51.440;6.914;2022-12-18T07:02:49;5.20;;;4.80;;
16197;SDS011;8206;51.440;6.914;2022-12-18T07:05:17;4.07;;;3.87;;
16197;SDS011;8206;51.440;6.914;2022-12-18T07:07:44;7.43;;;5.80;;
16197;SDS011;8206;51.440;6.914;2022-12-18T07:10:11;4.23;;;3.93;;
16197;SDS011;8206;51.440;6.914;2022-12-18T07:12:37;3.47;;;3.37;;
16197;SDS011;8206;51.440;6.914;2022-12-18T07:15:05;4.03;;;3.63;;
16197;SDS011;8206;51.440;6.914;2022-12-18T07:17:32;3.03;;;2.80;;
16197;SDS011;8206;51.440;6.914;2022-12-18T07:19:59;6.97;;;6.50;;
16197;SDS011;8206;51.440;6.914;2022-12-18T07:22:27;3.43;;;3.27;;
16197;SDS011;8206;51.440;6.914;2022-12-18T07:24:54;3.17;;;3.07;;
16197;SDS011;8206;51.440;6.914;2022-12-18T07:27:21;7.30;;;6.53;;
16197;SDS011;8206;51.440;6.914;2022-12-18T07:29:48;1.70;;;1.60;;
16197;SDS011;8206;51.440;6.914;2022-12-18T07:32:14;3.97;;;3.77;;
16197;SDS011;8206;51.440;6.914;2022-12-18T07:34:41;6.17;;;5.67;;
16197;SDS011;8206;51.440;6.914;2022-12-18T07:37:08;5.20;;;4.80;;
16197;SDS011;8206;51.440;6.914;2022-12-18T07:39:37;5.53;;;3.27;;
16197;SDS011;8206;51.440;6.914;2022-12-18T07:42:03;2.97;;;2.87;;
16197;SDS011;8206;51.440;6.914;2022-12-18T07:44:51;2.87;;;2.70;;
16197;SDS011;8206;51.440;6.914;2022-12-18T07:47:18;9.00;;;3.57;;
16197;SDS011;8206;51.440;6.914;2022-12-18T07:49:44;2.03;;;2.00;;
16197;SDS011;8206;51.440;6.914;2022-12-18T07:52:11;3.17;;;3.00;;
16197;SDS011;8206;51.440;6.914;2022-12-18T07:54:39;5.00;;;4.70;;
16197;SDS011;8206;51.440;6.914;2022-12-18T07:57:06;2.73;;;2.53;;
16197;SDS011;8206;51.440;6.914;2022-12-18T07:59:33;3.43;;;3.23;;
16197;SDS011;8206;51.440;6.914;2022-12-18T08:01:59;2.80;;;2.60;;
16197;SDS011;8206;51.440;6.914;2022-12-18T08:04:26;5.30;;;4.17;;
16197;SDS011;8206;51.440;6.914;2022-12-18T08:06:53;1.17;;;1.17;;
16197;SDS011;8206;51.440;6.914;2022-12-18T08:09:19;2.77;;;2.53;;
16197;SDS011;8206;51.440;6.914;2022-12-18T08:11:48;1.37;;;1.37;;
16197;SDS011;8206;51.440;6.914;2022-12-18T08:14:14;1.03;;;1.03;;
16197;SDS011;8206;51.440;6.914;2022-12-18T08:16:41;1.07;;;1.07;;
16197;SDS011;8206;51.440;6.914;2022-12-18T08:19:11;1.60;;;1.40;;
16197;SDS011;8206;51.440;6.914;2022-12-18T08:21:41;2.10;;;2.00;;
16197;SDS011;8206;51.440;6.914;2022-12-18T08:24:08;1.70;;;1.60;;
16197;SDS011;8206;51.440;6.914;2022-12-18T08:26:35;2.10;;;2.00;;
16197;SDS011;8206;51.440;6.914;2022-12-18T08:29:03;2.30;;;2.20;;
16197;SDS011;8206;51.440;6.914;2022-12-18T08:31:30;2.33;;;1.37;;
16197;SDS011;8206;51.440;6.914;2022-12-18T08:33:57;1.50;;;1.50;;
16197;SDS011;8206;51.440;6.914;2022-12-18T08:36:24;1.23;;;1.23;;
16197;SDS011;8206;51.440;6.914;2022-12-18T08:38:51;1.20;;;1.17;;
16197;SDS011;8206;51.440;6.914;2022-12-18T08:41:18;1.37;;;1.37;;
16197;SDS011;8206;51.440;6.914;2022-12-18T08:43:45;1.13;;;1.13;;
16197;SDS011;8206;51.440;6.914;2022-12-18T08:46:33;5.63;;;2.27;;
16197;SDS011;8206;51.440;6.914;2022-12-18T08:49:02;1.57;;;1.57;;
16197;SDS011;8206;51.440;6.914;2022-12-18T08:51:29;1.23;;;1.23;;
16197;SDS011;8206;51.440;6.914;2022-12-18T08:53:56;2.97;;;2.17;;
16197;SDS011;8206;51.440;6.914;2022-12-18T08:56:23;1.00;;;1.00;;
16197;SDS011;8206;51.440;6.914;2022-12-18T08:58:51;2.03;;;1.93;;
16197;SDS011;8206;51.440;6.914;2022-12-18T09:01:18;2.07;;;1.97;;
16197;SDS011;8206;51.440;6.914;2022-12-18T09:03:49;1.33;;;1.33;;
16197;SDS011;8206;51.440;6.914;2022-12-18T09:06:17;1.03;;;1.03;;
16197;SDS011;8206;51.440;6.914;2022-12-18T09:08:47;2.10;;;2.00;;
16197;SDS011;8206;51.440;6.914;2022-12-18T09:11:15;1.00;;;1.00;;
16197;SDS011;8206;51.440;6.914;2022-12-18T09:13:45;0.90;;;0.90;;
16197;SDS011;8206;51.440;6.914;2022-12-18T09:16:12;0.87;;;0.87;;
16197;SDS011;8206;51.440;6.914;2022-12-18T09:18:39;1.17;;;1.17;;
16197;SDS011;8206;51.440;6.914;2022-12-18T09:21:11;1.60;;;1.60;;
16197;SDS011;8206;51.440;6.914;2022-12-18T09:23:40;1.30;;;1.30;;
16197;SDS011;8206;51.440;6.914;2022-12-18T09:26:07;2.30;;;2.10;;
16197;SDS011;8206;51.440;6.914;2022-12-18T09:28:34;1.73;;;1.40;;
16197;SDS011;8206;51.440;6.914;2022-12-18T09:31:03;1.13;;;1.13;;
16197;SDS011;8206;51.440;6.914;2022-12-18T09:33:31;2.83;;;1.07;;
16197;SDS011;8206;51.440;6.914;2022-12-18T09:36:00;1.00;;;1.00;;
16197;SDS011;8206;51.440;6.914;2022-12-18T09:38:29;1.67;;;1.67;;
16197;SDS011;8206;51.440;6.914;2022-12-18T09:40:57;0.70;;;0.70;;
16197;SDS011;8206;51.440;6.914;2022-12-18T09:43:28;1.67;;;1.67;;
16197;SDS011;8206;51.440;6.914;2022-12-18T09:46:03;1.07;;;1.07;;
16197;SDS011;8206;51.440;6.914;2022-12-18T09:48:34;0.67;;;0.67;;
16197;SDS011;8206;51.440;6.914;2022-12-18T09:51:06;1.27;;;1.27;;
16197;SDS011;8206;51.440;6.914;2022-12-18T09:53:41;1.40;;;1.40;;
16197;SDS011;8206;51.440;6.914;2022-12-18T09:56:12;1.23;;;1.23;;
16197;SDS011;8206;51.440;6.914;2022-12-18T09:58:45;1.70;;;1.60;;
16197;SDS011;8206;51.440;6.914;2022-12-18T10:01:18;2.93;;;1.83;;
16197;SDS011;8206;51.440;6.914;2022-12-18T10:03:48;2.20;;;1.87;;
16197;SDS011;8206;51.440;6.914;2022-12-18T10:06:18;4.67;;;1.07;;
16197;SDS011;8206;51.440;6.914;2022-12-18T10:08:53;1.33;;;1.33;;
16197;SDS011;8206;51.440;6.914;2022-12-18T10:11:31;3.40;;;2.10;;
16197;SDS011;8206;51.440;6.914;2022-12-18T10:14:05;1.00;;;0.90;;
16197;SDS011;8206;51.440;6.914;2022-12-18T10:16:41;6.37;;;2.37;;
16197;SDS011;8206;51.440;6.914;2022-12-18T10:19:25;1.27;;;1.27;;
16197;SDS011;8206;51.440;6.914;2022-12-18T10:22:07;2.13;;;1.80;;
16197;SDS011;8206;51.440;6.914;2022-12-18T10:24:42;1.13;;;1.13;;
16197;SDS011;8206;51.440;6.914;2022-12-18T10:27:14;0.73;;;0.73;;
16197;SDS011;8206;51.440;6.914;2022-12-18T10:29:42;1.53;;;1.47;;
16197;SDS011;8206;51.440;6.914;2022-12-18T10:32:13;0.97;;;0.97;;
16197;SDS011;8206;51.440;6.914;2022-12-18T10:34:44;1.90;;;1.87;;
16197;SDS011;8206;51.440;6.914;2022-12-18T10:37:13;3.70;;;1.37;;
16197;SDS011;8206;51.440;6.914;2022-12-18T10:39:44;0.60;;;0.60;;
16197;SDS011;8206;51.440;6.914;2022-12-18T10:42:16;1.07;;;1.07;;
16197;SDS011;8206;51.440;6.914;2022-12-18T10:44:44;1.27;;;1.13;;
16197;SDS011;8206;51.440;6.914;2022-12-18T10:47:12;2.57;;;2.40;;
16197;SDS011;8206;51.440;6.914;2022-12-18T10:49:47;0.70;;;0.70;;
16197;SDS011;8206;51.440;6.914;2022-12-18T10:52:17;1.27;;;1.17;;
16197;SDS011;8206;51.440;6.914;2022-12-18T10:54:50;3.90;;;2.40;;
16197;SDS011;8206;51.440;6.914;2022-12-18T10:57:29;1.47;;;1.37;;
16197;SDS011;8206;51.440;6.914;2022-12-18T10:59:59;1.47;;;1.37;;
16197;SDS011;8206;51.440;6.914;2022-12-18T11:02:46;1.47;;;1.47;;
16197;SDS011;8206;51.440;6.914;2022-12-18T11:05:22;1.40;;;1.40;;
16197;SDS011;8206;51.440;6.914;2022-12-18T11:07:55;0.90;;;0.90;;
16197;SDS011;8206;51.440;6.914;2022-12-18T11:10:25;0.90;;;0.90;;
16197;SDS011;8206;51.440;6.914;2022-12-18T11:12:55;2.03;;;1.97;;
16197;SDS011;8206;51.440;6.914;2022-12-18T11:15:23;1.63;;;1.63;;
16197;SDS011;8206;51.440;6.914;2022-12-18T11:17:54;0.90;;;0.90;;
16197;SDS011;8206;51.440;6.914;2022-12-18T11:20:23;1.33;;;1.33;;
16197;SDS011;8206;51.440;6.914;2022-12-18T11:22:58;0.93;;;0.93;;
16197;SDS011;8206;51.440;6.914;2022-12-18T11:25:31;4.57;;;2.53;;
16197;SDS011;8206;51.440;6.914;2022-12-18T11:28:00;1.03;;;0.97;;
16197;SDS011;8206;51.440;6.914;2022-12-18T11:30:29;1.83;;;1.73;;
16197;SDS011;8206;51.440;6.914;2022-12-18T11:33:01;2.17;;;1.63;;
16197;SDS011;8206;51.440;6.914;2022-12-18T11:35:42;1.27;;;1.27;;
16197;SDS011;8206;51.440;6.914;2022-12-18T11:38:17;2.27;;;2.07;;
16197;SDS011;8206;51.440;6.914;2022-12-18T11:40:51;1.30;;;1.30;;
16197;SDS011;8206;51.440;6.914;2022-12-18T11:43:25;1.43;;;1.43;;
16197;SDS011;8206;51.440;6.914;2022-12-18T11:45:55;1.33;;;1.33;;
16197;SDS011;8206;51.440;6.914;2022-12-18T11:48:27;1.37;;;1.37;;
16197;SDS011;8206;51.440;6.914;2022-12-18T11:50:59;3.73;;;2.13;;
16197;SDS011;8206;51.440;6.914;2022-12-18T11:53:28;1.43;;;1.43;;
16197;SDS011;8206;51.440;6.914;2022-12-18T11:56:01;7.47;;;2.17;;
16197;SDS011;8206;51.440;6.914;2022-12-18T11:58:38;3.63;;;1.03;;
16197;SDS011;8206;51.440;6.914;2022-12-18T12:01:13;1.53;;;1.50;;
16197;SDS011;8206;51.440;6.914;2022-12-18T12:04:11;2.13;;;2.03;;
16197;SDS011;8206;51.440;6.914;2022-12-18T12:06:54;5.00;;;1.43;;
16197;SDS011;8206;51.440;6.914;2022-12-18T12:09:31;1.77;;;1.67;;
16197;SDS011;8206;51.440;6.914;2022-12-18T12:12:12;1.30;;;1.30;;
16197;SDS011;8206;51.440;6.914;2022-12-18T12:14:51;1.87;;;1.77;;
16197;SDS011;8206;51.440;6.914;2022-12-18T12:17:27;2.33;;;2.23;;
16197;SDS011;8206;51.440;6.914;2022-12-18T12:20:02;1.70;;;1.63;;
16197;SDS011;8206;51.440;6.914;2022-12-18T12:22:37;1.63;;;1.63;;
16197;SDS011;8206;51.440;6.914;2022-12-18T12:25:16;21.70;;;2.47;;
16197;SDS011;8206;51.440;6.914;2022-12-18T12:27:54;1.87;;;1.77;;
16197;SDS011;8206;51.440;6.914;2022-12-18T12:30:30;1.60;;;1.57;;
16197;SDS011;8206;51.440;6.914;2022-12-18T12:33:09;1.90;;;1.73;;
16197;SDS011;8206;51.440;6.914;2022-12-18T12:35:47;1.10;;;1.10;;
16197;SDS011;8206;51.440;6.914;2022-12-18T12:38:20;1.83;;;1.70;;
16197;SDS011;8206;51.440;6.914;2022-12-18T12:40:53;1.07;;;1.07;;
16197;SDS011;8206;51.440;6.914;2022-12-18T12:43:31;1.60;;;1.60;;
16197;SDS011;8206;51.440;6.914;2022-12-18T12:46:03;1.27;;;1.27;;
16197;SDS011;8206;51.440;6.914;2022-12-18T12:48:34;1.93;;;1.83;;
16197;SDS011;8206;51.440;6.914;2022-12-18T12:51:09;4.20;;;1.77;;
16197;SDS011;8206;51.440;6.914;2022-12-18T12:53:39;1.10;;;1.10;;
16197;SDS011;8206;51.440;6.914;2022-12-18T12:56:07;1.70;;;1.60;;
16197;SDS011;8206;51.440;6.914;2022-12-18T12:58:39;7.27;;;2.67;;
16197;SDS011;8206;51.440;6.914;2022-12-18T13:01:16;2.93;;;2.73;;
16197;SDS011;8206;51.440;6.914;2022-12-18T13:03:53;1.33;;;1.33;;
16197;SDS011;8206;51.440;6.914;2022-12-18T13:06:30;2.27;;;2.17;;
16197;SDS011;8206;51.440;6.914;2022-12-18T13:09:02;2.43;;;2.33;;
16197;SDS011;8206;51.440;6.914;2022-12-18T13:11:39;2.47;;;2.27;;
16197;SDS011;8206;51.440;6.914;2022-12-18T13:14:30;2.17;;;1.90;;
16197;SDS011;8206;51.440;6.914;2022-12-18T13:20:02;1.47;;;1.37;;
16197;SDS011;8206;51.440;6.914;2022-12-18T13:22:41;1.30;;;1.30;;
16197;SDS011;8206;51.440;6.914;2022-12-18T13:25:28;2.03;;;1.93;;
16197;SDS011;8206;51.440;6.914;2022-12-18T13:28:04;1.17;;;1.17;;
16197;SDS011;8206;51.440;6.914;2022-12-18T13:30:43;5.40;;;2.73;;
16197;SDS011;8206;51.440;6.914;2022-12-18T13:33:36;4.73;;;3.07;;
16197;SDS011;8206;51.440;6.914;2022-12-18T13:36:11;1.90;;;1.90;;
16197;SDS011;8206;51.440;6.914;2022-12-18T13:38:41;2.97;;;2.77;;
16197;SDS011;8206;51.440;6.914;2022-12-18T13:43:54;2.00;;;1.90;;
16197;SDS011;8206;51.440;6.914;2022-12-18T13:46:25;2.30;;;2.20;;
16197;SDS011;8206;51.440;6.914;2022-12-18T13:48:55;2.27;;;2.17;;
16197;SDS011;8206;51.440;6.914;2022-12-18T13:51:25;4.00;;;3.43;;
16197;SDS011;8206;51.440;6.914;2022-12-18T13:53:54;1.97;;;1.90;;
16197;SDS011;8206;51.440;6.914;2022-12-18T13:56:23;3.90;;;2.67;;
16197;SDS011;8206;51.440;6.914;2022-12-18T13:59:06;5.40;;;3.63;;
16197;SDS011;8206;51.440;6.914;2022-12-18T14:01:50;5.30;;;2.60;;
16197;SDS011;8206;51.440;6.914;2022-12-18T14:04:21;1.00;;;1.00;;
16197;SDS011;8206;51.440;6.914;2022-12-18T14:06:50;2.50;;;2.30;;
16197;SDS011;8206;51.440;6.914;2022-12-18T14:09:20;2.30;;;2.07;;
16197;SDS011;8206;51.440;6.914;2022-12-18T14:11:50;2.50;;;2.40;;
16197;SDS011;8206;51.440;6.914;2022-12-18T14:14:39;2.53;;;2.43;;
16197;SDS011;8206;51.440;6.914;2022-12-18T14:17:09;5.17;;;2.20;;
16197;SDS011;8206;51.440;6.914;2022-12-18T14:19:40;2.63;;;2.53;;
16197;SDS011;8206;51.440;6.914;2022-12-18T14:22:11;2.47;;;2.37;;
16197;SDS011;8206;51.440;6.914;2022-12-18T14:24:40;2.17;;;2.07;;
16197;SDS011;8206;51.440;6.914;2022-12-18T14:27:12;2.73;;;2.60;;
16197;SDS011;8206;51.440;6.914;2022-12-18T14:29:47;2.37;;;2.17;;
16197;SDS011;8206;51.440;6.914;2022-12-18T14:32:15;3.10;;;3.00;;
16197;SDS011;8206;51.440;6.914;2022-12-18T14:34:43;3.10;;;3.00;;
16197;SDS011;8206;51.440;6.914;2022-12-18T14:37:11;5.97;;;2.53;;
16197;SDS011;8206;51.440;6.914;2022-12-18T14:39:39;1.23;;;1.23;;
16197;SDS011;8206;51.440;6.914;2022-12-18T14:42:09;2.20;;;1.77;;
16197;SDS011;8206;51.440;6.914;2022-12-18T14:44:36;1.70;;;1.70;;
16197;SDS011;8206;51.440;6.914;2022-12-18T14:47:03;3.10;;;1.97;;
16197;SDS011;8206;51.440;6.914;2022-12-18T14:49:32;6.40;;;1.77;;
16197;SDS011;8206;51.440;6.914;2022-12-18T14:52:02;6.70;;;2.47;;
16197;SDS011;8206;51.440;6.914;2022-12-18T14:54:30;2.03;;;1.93;;
16197;SDS011;8206;51.440;6.914;2022-12-18T14:56:59;4.53;;;3.20;;
16197;SDS011;8206;51.440;6.914;2022-12-18T14:59:27;2.00;;;1.87;;
16197;SDS011;8206;51.440;6.914;2022-12-18T15:02:00;2.63;;;2.53;;
16197;SDS011;8206;51.440;6.914;2022-12-18T15:04:30;2.83;;;2.57;;
16197;SDS011;8206;51.440;6.914;2022-12-18T15:07:08;3.23;;;3.07;;
16197;SDS011;8206;51.440;6.914;2022-12-18T15:09:39;1.53;;;1.53;;
16197;SDS011;8206;51.440;6.914;2022-12-18T15:12:22;3.07;;;2.90;;
16197;SDS011;8206;51.440;6.914;2022-12-18T15:14:54;4.90;;;2.00;;
16197;SDS011;8206;51.440;6.914;2022-12-18T15:17:21;3.57;;;3.30;;
16197;SDS011;8206;51.440;6.914;2022-12-18T15:19:51;2.87;;;2.73;;
16197;SDS011;8206;51.440;6.914;2022-12-18T15:22:21;2.37;;;2.30;;
16197;SDS011;8206;51.440;6.914;2022-12-18T15:24:51;1.87;;;1.70;;
16197;SDS011;8206;51.440;6.914;2022-12-18T15:27:22;1.00;;;1.00;;